createdAt,value
2022-08-25T00:02:15.662Z,21.20
2022-08-25T00:04:45.401Z,21.20
2022-08-25T00:07:20.799Z,21.20
2022-08-25T00:09:47.707Z,21.20
2022-08-25T00:12:14.609Z,21.30
2022-08-25T00:14:43.011Z,21.30
2022-08-25T00:17:09.963Z,21.30
2022-08-25T00:19:38.512Z,21.20
2022-08-25T00:22:07.797Z,21.20
2022-08-25T00:24:34.789Z,21.20
2022-08-25T00:27:01.856Z,21.20
2022-08-25T00:29:29.836Z,21.20
2022-08-25T00:31:58.051Z,21.20
2022-08-25T00:34:37.536Z,21.20
2022-08-25T00:37:09.990Z,21.20
2022-08-25T00:39:38.728Z,21.20
2022-08-25T00:42:15.058Z,21.30
2022-08-25T00:44:43.987Z,21.30
2022-08-25T00:47:11.188Z,21.30
2022-08-25T00:49:49.413Z,21.20
2022-08-25T00:52:19.395Z,21.20
2022-08-25T00:54:52.042Z,21.20
2022-08-25T00:57:34.493Z,21.20
2022-08-25T01:00:05.959Z,21.20
2022-08-25T01:02:33.449Z,21.20
2022-08-25T01:05:00.421Z,21.20
2022-08-25T01:07:27.457Z,21.20
2022-08-25T01:09:55.547Z,21.20
2022-08-25T01:12:23.059Z,21.10
2022-08-25T01:14:51.371Z,21.10
2022-08-25T01:17:18.512Z,21.10
2022-08-25T01:19:45.476Z,21.10
2022-08-25T01:22:12.664Z,21.10
2022-08-25T01:25:05.909Z,21.10
2022-08-25T01:27:32.902Z,21.10
2022-08-25T01:29:59.926Z,21.10
2022-08-25T01:32:26.821Z,21.10
2022-08-25T01:34:53.698Z,21.10
2022-08-25T01:37:20.695Z,21.00
2022-08-25T01:39:47.939Z,21.00
2022-08-25T01:42:20.796Z,21.00
2022-08-25T01:44:48.686Z,21.00
2022-08-25T01:47:16.462Z,21.00
2022-08-25T01:49:43.774Z,21.00
2022-08-25T01:52:23.536Z,20.90
2022-08-25T01:54:50.756Z,20.90
2022-08-25T01:57:17.686Z,20.90
2022-08-25T01:59:45.061Z,20.90
2022-08-25T02:02:12.067Z,20.90
2022-08-25T02:04:39.538Z,20.80
2022-08-25T02:07:09.091Z,20.80
2022-08-25T02:09:37.838Z,20.80
2022-08-25T02:12:05.473Z,20.70
2022-08-25T02:14:32.548Z,20.70
2022-08-25T02:16:59.483Z,20.70
2022-08-25T02:19:26.686Z,20.70
2022-08-25T02:21:54.201Z,20.70
2022-08-25T02:24:21.632Z,20.70
2022-08-25T02:26:48.718Z,20.60
2022-08-25T02:29:16.916Z,20.60
2022-08-25T02:31:44.511Z,20.60
2022-08-25T02:34:12.026Z,20.60
2022-08-25T02:36:39.534Z,20.60
2022-08-25T02:39:08.428Z,20.60
2022-08-25T02:41:35.634Z,20.60
2022-08-25T02:44:04.122Z,20.50
2022-08-25T02:46:31.248Z,20.50
2022-08-25T02:48:58.756Z,20.50
2022-08-25T02:51:30.178Z,20.50
2022-08-25T02:53:59.154Z,20.50
2022-08-25T02:56:26.439Z,20.50
2022-08-25T02:58:53.371Z,20.50
2022-08-25T03:01:21.049Z,20.50
2022-08-25T03:03:50.753Z,20.50
2022-08-25T03:06:22.922Z,20.40
2022-08-25T03:08:50.704Z,20.40
2022-08-25T03:11:18.221Z,20.40
2022-08-25T03:13:45.497Z,20.40
2022-08-25T03:16:12.860Z,20.30
2022-08-25T03:18:42.085Z,20.30
2022-08-25T03:21:11.642Z,20.30
2022-08-25T03:23:39.825Z,20.20
2022-08-25T03:26:26.207Z,20.20
2022-08-25T03:28:55.474Z,20.20
2022-08-25T03:31:26.144Z,20.10
2022-08-25T03:33:54.114Z,20.10
2022-08-25T03:36:21.119Z,20.10
2022-08-25T03:38:48.053Z,20.10
2022-08-25T03:41:22.152Z,20.10
2022-08-25T03:43:50.274Z,20.00
2022-08-25T03:58:48.874Z,19.90
2022-08-25T04:01:16.787Z,19.80
2022-08-25T04:03:45.853Z,19.90
2022-08-25T04:06:13.649Z,19.90
2022-08-25T04:08:40.729Z,19.80
2022-08-25T04:11:15.308Z,19.80
2022-08-25T04:13:42.469Z,19.80
2022-08-25T04:16:14.454Z,19.70
2022-08-25T04:18:42.508Z,19.70
2022-08-25T04:21:11.333Z,19.70
2022-08-25T04:23:40.728Z,19.70
2022-08-25T04:26:19.318Z,19.70
2022-08-25T04:28:47.077Z,19.70
2022-08-25T04:31:15.686Z,19.60
2022-08-25T04:33:43.344Z,19.60
2022-08-25T04:36:12.505Z,19.60
2022-08-25T04:38:41.627Z,19.60
2022-08-25T04:41:10.808Z,19.60
2022-08-25T04:43:39.980Z,19.60
2022-08-25T04:46:12.588Z,19.50
2022-08-25T04:48:40.474Z,19.50
2022-08-25T04:51:09.543Z,19.50
2022-08-25T04:53:37.608Z,19.50
2022-08-25T04:56:10.156Z,19.50
2022-08-25T04:58:37.815Z,19.50
2022-08-25T05:01:07.033Z,19.50
2022-08-25T05:03:34.768Z,19.50
2022-08-25T05:06:02.983Z,19.50
2022-08-25T05:08:29.931Z,19.50
2022-08-25T05:10:57.092Z,19.50
2022-08-25T05:13:25.148Z,19.50
2022-08-25T05:15:58.244Z,19.50
2022-08-25T05:18:29.111Z,19.50
2022-08-25T05:20:57.498Z,19.50
2022-08-25T05:23:24.968Z,19.50
2022-08-25T05:25:52.938Z,19.50
2022-08-25T05:28:20.888Z,19.50
2022-08-25T05:30:50.903Z,19.50
2022-08-25T05:33:18.489Z,19.60
2022-08-25T05:35:45.475Z,19.60
2022-08-25T05:38:15.273Z,19.60
2022-08-25T05:40:42.826Z,19.60
2022-08-25T05:43:10.440Z,19.70
2022-08-25T05:45:37.602Z,19.70
2022-08-25T05:48:04.751Z,19.80
2022-08-25T05:50:31.918Z,19.80
2022-08-25T05:52:58.876Z,19.80
2022-08-25T05:55:25.810Z,19.80
2022-08-25T05:57:52.759Z,19.90
2022-08-25T06:00:19.873Z,19.90
2022-08-25T06:02:49.514Z,20.00
2022-08-25T06:05:18.929Z,20.00
2022-08-25T06:07:47.809Z,20.00
2022-08-25T06:10:16.081Z,20.10
2022-08-25T06:12:44.979Z,20.10
2022-08-25T06:15:19.020Z,20.20
2022-08-25T06:17:46.796Z,20.20
2022-08-25T06:20:25.445Z,20.30
2022-08-25T06:22:53.644Z,20.30
2022-08-25T06:25:23.107Z,20.40
2022-08-25T06:27:50.481Z,20.50
2022-08-25T06:30:25.699Z,20.50
2022-08-25T06:32:55.807Z,20.60
2022-08-25T06:35:22.876Z,20.50
2022-08-25T06:37:49.916Z,20.60
2022-08-25T06:40:23.718Z,20.60
2022-08-25T06:42:50.987Z,20.60
2022-08-25T06:45:18.626Z,20.70
2022-08-25T06:47:45.758Z,20.70
2022-08-25T06:50:12.691Z,20.80
2022-08-25T06:52:39.546Z,20.80
2022-08-25T06:55:06.892Z,20.80
2022-08-25T06:57:35.881Z,20.90
2022-08-25T07:00:08.551Z,20.90
2022-08-25T07:02:35.669Z,21.00
2022-08-25T07:05:04.682Z,21.00
2022-08-25T07:07:43.614Z,21.10
2022-08-25T07:10:11.933Z,21.20
2022-08-25T07:12:39.559Z,21.20
2022-08-25T07:15:22.452Z,21.20
2022-08-25T07:17:50.575Z,21.10
2022-08-25T07:20:19.437Z,21.10
2022-08-25T07:22:47.252Z,21.10
2022-08-25T07:25:14.281Z,21.10
2022-08-25T07:27:44.836Z,21.10
2022-08-25T07:30:11.728Z,20.90
2022-08-25T07:32:43.048Z,20.90
2022-08-25T07:35:19.191Z,20.90
2022-08-25T07:37:52.420Z,20.80
2022-08-25T07:40:29.450Z,20.90
2022-08-25T07:42:58.423Z,20.80
2022-08-25T07:45:30.475Z,20.80
2022-08-25T07:48:05.268Z,20.70
2022-08-25T07:50:33.331Z,20.70
2022-08-25T07:53:00.959Z,20.80
2022-08-25T07:55:30.383Z,20.70
2022-08-25T07:57:59.768Z,20.60
2022-08-25T08:00:29.928Z,20.60
2022-08-25T08:02:58.036Z,20.60
2022-08-25T08:05:26.052Z,20.70
2022-08-25T08:07:54.934Z,20.70
2022-08-25T08:10:48.094Z,20.70
2022-08-25T08:13:11.591Z,20.70
2022-08-25T08:15:45.352Z,20.80
2022-08-25T08:18:12.205Z,20.80
2022-08-25T08:20:42.450Z,20.90
2022-08-25T08:23:10.435Z,20.90
2022-08-25T08:25:37.468Z,20.90
2022-08-25T08:28:04.473Z,21.10
2022-08-25T08:30:36.544Z,21.10
2022-08-25T08:33:10.030Z,21.20
2022-08-25T08:35:38.406Z,21.10
2022-08-25T08:38:13.493Z,21.20
2022-08-25T08:42:07.135Z,21.20
2022-08-25T08:44:44.638Z,21.10
2022-08-25T08:47:52.624Z,20.90
2022-08-25T08:50:49.565Z,20.90
2022-08-25T08:53:42.873Z,21.10
2022-08-25T08:56:16.447Z,21.10
2022-08-25T08:58:51.878Z,21.30
2022-08-25T09:01:47.577Z,21.40
2022-08-25T09:04:29.742Z,21.50
2022-08-25T09:06:59.051Z,21.50
2022-08-25T09:09:35.669Z,21.50
2022-08-25T09:12:19.755Z,21.50
2022-08-25T09:15:00.952Z,21.50
2022-08-25T09:17:54.806Z,21.60
2022-08-25T09:20:40.437Z,21.70
2022-08-25T09:23:31.941Z,21.60
2022-08-25T09:26:33.223Z,21.70
2022-08-25T09:29:16.736Z,21.70
2022-08-25T09:31:45.568Z,21.70
2022-08-25T09:34:20.151Z,21.70
2022-08-25T09:36:48.790Z,21.70
2022-08-25T09:39:15.742Z,21.70
2022-08-25T09:41:53.927Z,21.60
2022-08-25T09:44:46.101Z,21.50
2022-08-25T09:47:32.833Z,21.60
2022-08-25T09:50:04.451Z,21.60
2022-08-25T09:52:32.609Z,21.70
2022-08-25T09:55:05.631Z,21.70
2022-08-25T09:57:47.699Z,21.60
2022-08-25T10:00:30.739Z,21.60
2022-08-25T10:03:11.333Z,21.70
2022-08-25T10:06:04.230Z,21.70
2022-08-25T10:08:43.420Z,21.80
2022-08-25T10:11:29.101Z,21.90
2022-08-25T10:14:06.543Z,21.90
2022-08-25T10:16:36.010Z,21.90
2022-08-25T10:19:25.331Z,21.90
2022-08-25T10:22:10.927Z,22.00
2022-08-25T10:24:41.093Z,22.00
2022-08-25T10:27:36.048Z,22.10
2022-08-25T10:30:23.475Z,22.10
2022-08-25T10:32:56.311Z,22.20
2022-08-25T10:35:26.591Z,22.30
2022-08-25T10:38:13.076Z,22.40
2022-08-25T10:41:17.679Z,22.40
2022-08-25T10:44:41.979Z,22.50
2022-08-25T10:47:38.211Z,22.60
2022-08-25T10:50:32.951Z,22.70
2022-08-25T10:53:06.168Z,22.80
2022-08-25T10:56:07.095Z,22.90
2022-08-25T10:58:59.803Z,23.00
2022-08-25T11:01:49.062Z,23.10
2022-08-25T11:04:27.829Z,23.10
2022-08-25T11:07:07.760Z,23.10
2022-08-25T11:09:39.324Z,23.20
2022-08-25T11:12:19.133Z,23.30
2022-08-25T11:14:51.804Z,23.30
2022-08-25T11:17:46.301Z,23.40
2022-08-25T11:20:27.145Z,23.50
2022-08-25T11:23:22.103Z,23.50
2022-08-25T11:26:12.936Z,23.60
2022-08-25T11:28:47.497Z,23.70
2022-08-25T11:31:17.251Z,23.80
2022-08-25T11:33:44.683Z,23.80
2022-08-25T11:36:31.827Z,23.80
2022-08-25T11:39:07.626Z,23.90
2022-08-25T11:41:46.432Z,24.00
2022-08-25T11:44:32.089Z,24.00
2022-08-25T11:47:31.344Z,24.10
2022-08-25T11:50:08.126Z,24.10
2022-08-25T11:52:35.636Z,24.20
2022-08-25T11:55:07.250Z,24.20
2022-08-25T11:57:37.586Z,24.30
2022-08-25T12:00:20.772Z,24.40
2022-08-25T12:02:51.224Z,24.50
2022-08-25T12:05:22.049Z,24.60
2022-08-25T12:08:45.681Z,24.80
2022-08-25T12:11:32.446Z,24.80
2022-08-25T12:14:22.981Z,24.90
2022-08-25T12:16:56.580Z,25.00
2022-08-25T12:19:26.762Z,25.10
2022-08-25T12:22:03.447Z,25.20
2022-08-25T12:24:47.677Z,25.30
2022-08-25T12:27:24.793Z,25.30
2022-08-25T12:30:21.791Z,25.40
2022-08-25T12:33:13.324Z,25.40
2022-08-25T12:36:00.348Z,25.40
2022-08-25T12:38:49.559Z,25.50
2022-08-25T12:41:24.556Z,25.60
2022-08-25T12:43:54.450Z,25.60
2022-08-25T12:46:21.848Z,25.70
2022-08-25T12:48:57.670Z,25.70
2022-08-25T12:51:39.426Z,25.70
2022-08-25T12:54:28.822Z,25.80
2022-08-25T12:56:59.609Z,25.80
2022-08-25T12:59:38.087Z,25.70
2022-08-25T13:02:31.341Z,25.80
2022-08-25T13:05:01.064Z,25.80
2022-08-25T13:07:51.575Z,25.80
2022-08-25T13:10:48.785Z,25.90
2022-08-25T13:13:53.513Z,25.90
2022-08-25T13:16:29.077Z,25.90
2022-08-25T13:18:59.579Z,26.00
2022-08-25T13:21:38.868Z,26.00
2022-08-25T13:24:26.057Z,25.90
2022-08-25T13:27:09.531Z,25.90
2022-08-25T13:29:51.106Z,25.90
2022-08-25T13:32:32.363Z,26.00
2022-08-25T13:35:37.860Z,26.00
2022-08-25T13:38:15.434Z,26.00
2022-08-25T13:40:43.092Z,26.00
2022-08-25T13:43:13.887Z,26.10
2022-08-25T13:45:47.406Z,26.00
2022-08-25T13:48:30.763Z,26.10
2022-08-25T13:51:06.247Z,26.10
2022-08-25T13:53:36.747Z,26.10
2022-08-25T13:56:04.581Z,26.10
2022-08-25T13:58:44.891Z,26.10
2022-08-25T14:01:23.516Z,26.20
2022-08-25T14:04:51.420Z,26.20
2022-08-25T14:07:22.742Z,26.20
2022-08-25T14:10:30.971Z,26.20
2022-08-25T14:13:32.015Z,26.30
2022-08-25T14:16:29.330Z,26.30
2022-08-25T14:18:59.375Z,26.30
2022-08-25T14:21:28.861Z,26.30
2022-08-25T14:23:56.993Z,26.30
2022-08-25T14:26:24.999Z,26.30
2022-08-25T14:28:53.673Z,26.30
2022-08-25T14:31:28.130Z,26.30
2022-08-25T14:34:03.248Z,26.30
2022-08-25T14:36:31.607Z,26.30
2022-08-25T14:38:59.283Z,26.30
2022-08-25T14:41:27.603Z,26.30
2022-08-25T14:43:54.570Z,26.30
2022-08-25T14:46:24.947Z,26.30
2022-08-25T14:48:56.624Z,26.30
2022-08-25T14:51:25.797Z,26.30
2022-08-25T14:53:57.841Z,26.30
2022-08-25T14:56:25.186Z,26.30
2022-08-25T14:58:54.750Z,26.30
2022-08-25T15:01:28.861Z,26.30
2022-08-25T15:04:17.571Z,26.30
2022-08-25T15:06:45.682Z,26.40
2022-08-25T15:09:16.334Z,26.40
2022-08-25T15:11:46.277Z,26.40
2022-08-25T15:14:17.397Z,26.40
2022-08-25T15:16:45.322Z,26.40
2022-08-25T15:19:17.669Z,26.40
2022-08-25T15:22:10.368Z,26.40
2022-08-25T15:24:38.975Z,26.40
2022-08-25T15:27:10.239Z,26.40
2022-08-25T15:29:37.560Z,26.40
2022-08-25T15:32:07.912Z,26.40
2022-08-25T15:34:35.444Z,26.40
2022-08-25T15:37:15.352Z,26.40
2022-08-25T15:39:44.536Z,26.40
2022-08-25T15:42:12.353Z,26.40
2022-08-25T15:44:39.999Z,26.30
2022-08-25T15:47:08.543Z,26.30
2022-08-25T15:49:39.746Z,26.40
2022-08-25T15:52:06.716Z,26.30
2022-08-25T15:54:33.603Z,26.40
2022-08-25T15:57:03.391Z,26.40
2022-08-25T15:59:35.715Z,26.40
2022-08-25T16:02:03.246Z,26.40
2022-08-25T16:04:32.253Z,26.40
2022-08-25T16:07:00.182Z,26.40
2022-08-25T16:09:28.207Z,26.50
2022-08-25T16:12:00.588Z,26.40
2022-08-25T16:14:31.195Z,26.40
2022-08-25T16:16:59.636Z,26.40
2022-08-25T16:19:28.283Z,26.40
2022-08-25T16:21:55.635Z,26.40
2022-08-25T16:24:22.846Z,26.40
2022-08-25T16:26:51.746Z,26.40
2022-08-25T16:29:19.952Z,26.40
2022-08-25T16:31:54.976Z,26.40
2022-08-25T16:34:24.557Z,26.40
2022-08-25T16:36:52.718Z,26.40
2022-08-25T16:39:21.250Z,26.40
2022-08-25T16:41:48.487Z,26.40
2022-08-25T16:44:19.613Z,26.30
2022-08-25T16:46:50.183Z,26.40
2022-08-25T16:49:17.992Z,26.30
2022-08-25T16:51:44.997Z,26.30
2022-08-25T16:54:33.170Z,26.30
2022-08-25T16:57:00.681Z,26.30
2022-08-25T16:59:27.940Z,26.20
2022-08-25T17:01:55.126Z,26.30
2022-08-25T17:04:27.614Z,26.20
2022-08-25T17:06:59.778Z,26.20
2022-08-25T17:09:26.865Z,26.20
2022-08-25T17:11:56.834Z,26.20
2022-08-25T17:14:24.724Z,26.20
2022-08-25T17:16:54.759Z,26.20
2022-08-25T17:19:23.739Z,26.10
2022-08-25T17:21:52.236Z,26.20
2022-08-25T17:24:20.075Z,26.10
2022-08-25T17:26:50.020Z,26.00
2022-08-25T17:29:18.294Z,26.00
2022-08-25T17:31:46.319Z,26.00
2022-08-25T17:34:16.932Z,26.00
2022-08-25T17:36:49.429Z,26.00
2022-08-25T17:39:18.445Z,26.00
2022-08-25T17:41:45.898Z,26.00
2022-08-25T17:44:13.688Z,25.90
2022-08-25T17:46:47.356Z,25.90
2022-08-25T17:49:15.613Z,25.90
2022-08-25T17:51:42.641Z,25.90
2022-08-25T17:54:09.692Z,25.90
2022-08-25T17:56:37.933Z,25.90
2022-08-25T17:59:05.917Z,25.80
2022-08-25T18:01:35.088Z,25.90
2022-08-25T18:04:14.295Z,25.80
2022-08-25T18:06:46.199Z,25.80
2022-08-25T18:09:13.739Z,25.70
2022-08-25T18:11:41.075Z,25.80
2022-08-25T18:14:11.514Z,25.70
2022-08-25T18:16:45.720Z,25.60
2022-08-25T18:19:14.540Z,25.60
2022-08-25T18:21:43.465Z,25.60
2022-08-25T18:24:11.332Z,25.50
2022-08-25T18:26:40.340Z,25.50
2022-08-25T18:29:08.628Z,25.50
2022-08-25T18:31:36.241Z,25.40
2022-08-25T18:34:09.449Z,25.40
2022-08-25T18:36:43.149Z,25.30
2022-08-25T18:39:35.015Z,25.20
2022-08-25T18:42:06.502Z,25.10
2022-08-25T18:44:54.472Z,25.10
2022-08-25T18:47:47.576Z,25.10
2022-08-25T18:50:26.866Z,25.00
2022-08-25T18:52:56.573Z,24.90
2022-08-25T18:55:39.136Z,24.90
2022-08-25T18:58:15.956Z,24.90
2022-08-25T19:00:46.982Z,24.80
2022-08-25T19:03:24.678Z,24.80
2022-08-25T19:05:57.344Z,24.80
2022-08-25T19:08:26.067Z,24.80
2022-08-25T19:10:54.329Z,24.80
2022-08-25T19:13:22.729Z,24.70
2022-08-25T19:15:51.992Z,24.70
2022-08-25T19:18:28.834Z,24.60
2022-08-25T19:20:59.137Z,24.60
2022-08-25T19:23:29.560Z,24.60
2022-08-25T19:25:59.292Z,24.50
2022-08-25T19:28:29.443Z,24.50
2022-08-25T19:31:03.997Z,24.50
2022-08-25T19:33:44.676Z,24.50
2022-08-25T19:36:13.744Z,24.50
2022-08-25T19:38:41.165Z,24.40
2022-08-25T19:41:14.099Z,24.40
2022-08-25T19:43:55.582Z,24.30
2022-08-25T19:46:32.768Z,24.30
2022-08-25T19:49:07.119Z,24.30
2022-08-25T19:51:37.214Z,24.30
2022-08-25T19:54:05.659Z,24.20
2022-08-25T19:56:35.155Z,24.20
2022-08-25T19:59:04.096Z,24.10
2022-08-25T20:01:31.878Z,24.10
2022-08-25T20:03:59.030Z,24.00
2022-08-25T20:06:27.712Z,24.00
2022-08-25T20:08:58.907Z,24.00
2022-08-25T20:11:28.938Z,24.00
2022-08-25T20:14:00.418Z,23.90
2022-08-25T20:16:30.970Z,23.90
2022-08-25T20:19:00.191Z,23.80
2022-08-25T20:21:28.144Z,23.80
2022-08-25T20:24:16.807Z,23.80
2022-08-25T20:26:43.943Z,23.80
2022-08-25T20:29:11.447Z,23.70
2022-08-25T20:31:39.209Z,23.70
2022-08-25T20:34:06.756Z,23.70
2022-08-25T20:36:33.661Z,23.60
2022-08-25T20:39:00.731Z,23.60
2022-08-25T20:41:27.774Z,23.60
2022-08-25T20:43:54.723Z,23.60
2022-08-25T20:46:22.833Z,23.60
2022-08-25T20:48:50.611Z,23.60
2022-08-25T20:51:21.140Z,23.50
2022-08-25T20:53:51.268Z,23.50
2022-08-25T20:56:19.679Z,23.50
2022-08-25T20:58:50.816Z,23.50
2022-08-25T21:01:37.522Z,23.40
2022-08-25T21:04:10.127Z,23.40
2022-08-25T21:06:48.200Z,23.30
2022-08-25T21:09:23.411Z,23.30
2022-08-25T21:12:18.870Z,23.30
2022-08-25T21:14:49.107Z,23.30
2022-08-25T21:17:19.229Z,23.20
2022-08-25T21:19:53.326Z,23.20
2022-08-25T21:22:20.677Z,23.20
2022-08-25T21:24:47.631Z,23.10
2022-08-25T21:27:17.166Z,23.10
2022-08-25T21:29:44.685Z,23.10
2022-08-25T21:32:22.664Z,23.10
2022-08-25T21:34:58.403Z,23.10
2022-08-25T21:37:27.647Z,23.00
2022-08-25T21:39:55.153Z,23.00
2022-08-25T21:42:23.943Z,23.00
2022-08-25T21:44:52.627Z,23.00
2022-08-25T21:47:21.022Z,23.00
2022-08-25T21:49:50.926Z,23.00
2022-08-25T21:52:18.596Z,23.00
2022-08-25T21:54:45.969Z,23.00
2022-08-25T21:57:12.940Z,23.00
2022-08-25T21:59:43.665Z,22.90
2022-08-25T22:02:25.192Z,22.90
2022-08-25T22:05:02.310Z,22.90
2022-08-25T22:07:29.226Z,22.90
2022-08-25T22:10:09.436Z,22.90
2022-08-25T22:12:44.215Z,22.80
2022-08-25T22:15:12.447Z,22.80
2022-08-25T22:17:40.798Z,22.80
2022-08-25T22:20:08.924Z,22.80
2022-08-25T22:22:36.193Z,22.80
2022-08-25T22:25:04.052Z,22.80
2022-08-25T22:27:34.603Z,22.80
2022-08-25T22:30:02.046Z,22.80
2022-08-25T22:32:30.743Z,22.70
2022-08-25T22:35:00.223Z,22.70
2022-08-25T22:37:27.473Z,22.70
2022-08-25T22:39:57.633Z,22.70
2022-08-25T22:42:25.766Z,22.60
2022-08-25T22:44:53.953Z,22.60
2022-08-25T22:47:21.485Z,22.60
2022-08-25T22:49:48.806Z,22.60
2022-08-25T22:52:15.868Z,22.60
2022-08-25T22:54:42.710Z,22.60
2022-08-25T22:57:10.918Z,22.60
2022-08-25T22:59:38.308Z,22.60
2022-08-25T23:02:05.945Z,22.50
2022-08-25T23:04:33.853Z,22.60
2022-08-25T23:07:00.680Z,22.50
2022-08-25T23:09:27.546Z,22.50
2022-08-25T23:11:54.431Z,22.50
2022-08-25T23:14:21.704Z,22.50
2022-08-25T23:16:50.027Z,22.50
2022-08-25T23:19:18.144Z,22.50
2022-08-25T23:22:04.449Z,22.40
2022-08-25T23:24:31.818Z,22.40
2022-08-25T23:27:00.936Z,22.40
2022-08-25T23:29:28.225Z,22.40
2022-08-25T23:31:55.756Z,22.40
2022-08-25T23:34:23.052Z,22.40
2022-08-25T23:36:49.929Z,22.40
2022-08-25T23:39:16.833Z,22.40
2022-08-25T23:41:44.427Z,22.40
2022-08-25T23:44:11.900Z,22.40
2022-08-25T23:46:44.626Z,22.40
2022-08-25T23:49:11.595Z,22.40
2022-08-25T23:51:38.931Z,22.40
2022-08-25T23:54:09.338Z,22.40
2022-08-25T23:56:42.488Z,22.40
2022-08-25T23:59:12.950Z,22.40
